Flood From: 19-02-2018 10:30 Until: 20-02-2018 06:00 warning for: Flood Level: Yellow info button

Although rather usual in this region, locally or potentially dangerous phenomena are expected. (such as local winds, summer thunderstorms, rising streams or high waves) Be aware and pay attention to the latest weather updates, especially if you carry out activities exposed to weather or close to a stream or shoreline. 


Meteo18 Weather Cam more information Meteo18 Weather Cam


Thunder radar more information blitzortung!


Rain radar more information rain snow radar


Visit our other weather sites:

Template documentation
and downloads

And another site



Weather Underground History page Text

Daily Summary for October 26, 2017 Units:  English    Metric   Both
« Previous Day
Next Day »
Daily Weekly Monthly Yearly Custom
  High: Low: Average:
Temperature: TemperatureC °F 11.1 °F 15.7 °F
Dew Point: DewpointC °F 10.6 °F 13.1 °F
Humidity: Humidity % 56 % 85 %
Wind Speed: WindSpeedKMH mph 0.0 mph 1.3 mph
Wind Gust: WindSpeedGustKMH mph - -
Wind:- - SW
Pressure: PressurehPa in 1024.9 in -
Precipitation: 0.3 in    
Historical Graphs
 
 
Tabular Data for October 26, 2017
Time Temperature Dew Point Pressure Wind Wind Speed Wind Gust Humidity Rainfall Rate (Hourly)
TemperatureC °F DewpointC °F PressurehPa in Calm     Humidity % HourlyPrecipMM in
00:02 13.1 °F 12.5 °F 1026.0 in Calm   3.2 mph 96 % 0.0 in
00:12 12.8 °F 12.2 °F 1026.0 in Calm   1.6 mph 96 % 0.0 in
00:17 12.8 °F 12.2 °F 1026.0 in Calm   1.6 mph 96 % 0.0 in
00:22 12.9 °F 12.3 °F 1026.0 in Calm     96 % 0.0 in
00:32 12.9 °F 12.3 °F 1026.0 in Calm     96 % 0.0 in
00:37 13.0 °F 12.4 °F 1026.0 in Calm     96 % 0.0 in
00:42 12.8 °F 12.2 °F 1026.0 in Calm     96 % 0.0 in
00:47 12.6 °F 12.0 °F 1026.0 in Calm     96 % 0.0 in
00:52 12.5 °F 11.9 °F 1026.0 in Calm     96 % 0.0 in
00:57 12.4 °F 11.8 °F 1026.0 in Calm     96 % 0.0 in
01:02 12.5 °F 11.9 °F 1026.0 in Calm     96 % 0.0 in
01:12 12.5 °F 11.9 °F 1026.0 in Calm     96 % 0.0 in
01:17 12.5 °F 11.9 °F 1026.0 in Calm     96 % 0.0 in
01:22 12.4 °F 11.8 °F 1026.0 in Calm     96 % 0.0 in
01:32 12.6 °F 12.1 °F 1026.0 in Calm     97 % 0.0 in
01:42 12.8 °F 12.3 °F 1026.0 in Calm     97 % 0.0 in
01:52 12.9 °F 12.4 °F 1026.0 in Calm     97 % 0.0 in
01:57 12.7 °F 12.1 °F 1026.0 in Calm     96 % 0.0 in
02:02 12.4 °F 11.8 °F 1026.0 in Calm     96 % 0.0 in
02:07 12.4 °F 11.9 °F 1026.0 in Calm     97 % 0.0 in
02:12 12.4 °F 11.9 °F 1026.0 in Calm     97 % 0.0 in
02:17 12.5 °F 12.0 °F 1026.0 in Calm     97 % 0.0 in
02:22 12.6 °F 12.1 °F 1026.0 in Calm     97 % 0.0 in
02:32 12.3 °F 11.7 °F 1026.0 in North 3.2 mph   96 % 0.0 in
02:37 12.5 °F 12.0 °F 1026.0 in North 1.6 mph 3.2 mph 97 % 0.0 in
02:42 12.4 °F 11.9 °F 1026.0 in NNW 1.6 mph 3.2 mph 97 % 0.0 in
02:52 12.4 °F 11.9 °F 1026.0 in NNW 1.6 mph 3.2 mph 97 % 0.0 in
02:57 12.4 °F 11.9 °F 1026.0 in NNW 1.6 mph 3.2 mph 97 % 0.0 in
03:02 12.4 °F 11.9 °F 1025.6 in NNW 1.6 mph 3.2 mph 97 % 0.0 in
03:07 12.6 °F 12.1 °F 1026.0 in Calm   3.2 mph 97 % 0.0 in
03:12 12.6 °F 12.1 °F 1026.0 in Calm   3.2 mph 97 % 0.0 in
03:17 12.6 °F 12.1 °F 1026.0 in Calm   3.2 mph 97 % 0.0 in
03:22 12.3 °F 11.7 °F 1026.0 in Calm   3.2 mph 96 % 0.0 in
03:32 12.2 °F 11.7 °F 1026.0 in Calm   1.6 mph 97 % 0.0 in
03:37 12.3 °F 11.8 °F 1026.0 in Calm     97 % 0.0 in
03:42 12.3 °F 11.8 °F 1026.0 in Calm     97 % 0.0 in
03:47 12.4 °F 11.9 °F 1026.0 in Calm     97 % 0.0 in
03:52 12.1 °F 11.5 °F 1026.0 in Calm     96 % 0.0 in
03:57 12.1 °F 11.6 °F 1025.6 in Calm     97 % 0.0 in
04:02 12.2 °F 11.7 °F 1026.0 in Calm     97 % 0.0 in
04:07 12.4 °F 11.9 °F 1026.0 in Calm     97 % 0.0 in
04:12 12.4 °F 11.9 °F 1026.0 in Calm     97 % 0.0 in
04:17 12.2 °F 11.7 °F 1026.0 in NE 1.6 mph   97 % 0.0 in
04:22 11.8 °F 11.2 °F 1025.6 in NNE 3.2 mph   96 % 0.0 in
04:32 12.0 °F 11.5 °F 1025.6 in NNE 3.2 mph 3.2 mph 97 % 0.0 in
04:37 12.3 °F 12.0 °F 1025.6 in NNE 3.2 mph 3.2 mph 98 % 0.0 in
04:42 12.3 °F 11.8 °F 1025.6 in Calm   3.2 mph 97 % 0.0 in
04:47 12.3 °F 11.8 °F 1025.6 in Calm   3.2 mph 97 % 0.0 in
04:52 12.2 °F 11.7 °F 1025.6 in Calm   3.2 mph 97 % 0.0 in
04:57 11.9 °F 11.4 °F 1025.3 in Calm   1.6 mph 97 % 0.0 in
05:02 12.1 °F 11.6 °F 1025.3 in Calm   1.6 mph 97 % 0.0 in
05:07 12.3 °F 11.8 °F 1025.3 in Calm     97 % 0.0 in
05:12 12.1 °F 11.6 °F 1025.6 in Calm     97 % 0.0 in
05:17 12.0 °F 11.5 °F 1025.6 in Calm     97 % 0.0 in
05:22 11.9 °F 11.4 °F 1025.6 in Calm     97 % 0.0 in
05:32 11.9 °F 11.4 °F 1025.6 in Calm     97 % 0.0 in
05:42 11.8 °F 11.3 °F 1025.6 in Calm     97 % 0.0 in
05:52 12.1 °F 11.6 °F 1025.6 in Calm     97 % 0.3 in
05:57 12.2 °F 11.7 °F 1025.6 in Calm     97 % 0.3 in
06:02 12.4 °F 12.1 °F 1025.6 in Calm     98 % 0.3 in
06:12 12.5 °F 12.0 °F 1025.6 in Calm     97 % 0.3 in
06:17 12.3 °F 11.8 °F 1025.6 in Calm     97 % 0.3 in
06:22 12.1 °F 11.6 °F 1025.6 in Calm     97 % 0.3 in
06:32 11.7 °F 11.1 °F 1025.6 in WNW 1.6 mph   96 % 0.3 in
06:42 12.0 °F 11.5 °F 1025.6 in Calm   1.6 mph 97 % 0.0 in
06:52 11.9 °F 11.4 °F 1025.6 in Calm   1.6 mph 97 % 0.0 in
07:02 11.8 °F 11.3 °F 1025.6 in Calm     97 % 0.0 in
07:12 12.1 °F 11.8 °F 1025.6 in Calm     98 % 0.0 in
07:17 12.0 °F 11.5 °F 1025.6 in Calm     97 % 0.0 in
07:22 11.8 °F 11.3 °F 1025.6 in Calm     97 % 0.0 in
07:32 11.4 °F 10.9 °F 1025.6 in Calm     97 % 0.0 in
07:42 11.8 °F 11.5 °F 1025.6 in Calm     98 % 0.0 in
07:52 11.7 °F 11.2 °F 1025.6 in Calm     97 % 0.0 in
08:02 11.6 °F 11.1 °F 1025.6 in Calm     97 % 0.0 in
08:07 11.5 °F 11.0 °F 1025.6 in Calm     97 % 0.0 in
08:12 11.3 °F 10.8 °F 1025.6 in Calm     97 % 0.0 in
08:17 11.2 °F 10.7 °F 1025.6 in Calm     97 % 0.0 in
08:22 11.2 °F 10.7 °F 1025.6 in Calm     97 % 0.0 in
08:32 11.2 °F 10.7 °F 1026.0 in Calm     97 % 0.0 in
08:42 11.2 °F 10.7 °F 1026.0 in Calm     97 % 0.0 in
08:47 11.2 °F 10.7 °F 1026.0 in Calm     97 % 0.0 in
08:52 11.1 °F 10.6 °F 1026.0 in Calm     97 % 0.0 in
09:02 11.1 °F 10.6 °F 1026.3 in Calm     97 % 0.0 in
09:07 11.3 °F 11.0 °F 1026.3 in Calm     98 % 0.0 in
09:12 11.3 °F 10.8 °F 1026.3 in Calm     97 % 0.0 in
09:17 11.2 °F 10.7 °F 1026.3 in Calm     97 % 0.0 in
09:22 11.2 °F 10.7 °F 1026.3 in Calm     97 % 0.0 in
09:32 11.7 °F 11.2 °F 1026.3 in Calm     97 % 0.0 in
09:42 12.4 °F 11.9 °F 1026.3 in Calm     97 % 0.0 in
09:47 12.4 °F 11.9 °F 1026.3 in Calm     97 % 0.0 in
09:52 12.4 °F 11.8 °F 1026.3 in Calm     96 % 0.0 in
10:02 12.6 °F 12.0 °F 1026.3 in Calm     96 % 0.0 in
10:07 12.6 °F 12.0 °F 1026.3 in Calm     96 % 0.0 in
10:12 12.8 °F 12.2 °F 1026.3 in Calm     96 % 0.0 in
10:22 13.4 °F 12.9 °F 1026.3 in Calm     97 % 0.0 in
10:32 14.0 °F 13.2 °F 1026.3 in Calm     95 % 0.0 in
10:37 13.9 °F 12.9 °F 1026.3 in Calm     94 % 0.0 in
10:42 14.0 °F 12.9 °F 1026.3 in Calm     93 % 0.0 in
10:52 14.3 °F 12.9 °F 1026.3 in Calm     91 % 0.0 in
10:57 14.3 °F 12.7 °F 1026.3 in SSE 1.6 mph 4.8 mph 90 % 0.0 in
11:02 14.4 °F 12.8 °F 1026.3 in Calm   4.8 mph 90 % 0.0 in
11:12 14.8 °F 12.8 °F 1026.3 in SSW 1.6 mph 6.4 mph 88 % 0.0 in
11:17 15.0 °F 13.2 °F 1026.3 in Calm   4.8 mph 89 % 0.0 in
11:22 15.2 °F 13.0 °F 1026.3 in Calm   4.8 mph 87 % 0.0 in
11:32 15.5 °F 13.3 °F 1026.3 in Calm   3.2 mph 87 % 0.0 in
11:42 15.7 °F 13.2 °F 1026.3 in Calm   4.8 mph 85 % 0.0 in
11:52 16.2 °F 13.7 °F 1026.3 in Calm   3.2 mph 85 % 0.0 in
12:02 16.6 °F 13.9 °F 1026.3 in SSW 1.6 mph 3.2 mph 84 % 0.0 in
12:07 16.7 °F 13.8 °F 1026.3 in South 3.2 mph 4.8 mph 83 % 0.0 in
12:12 16.7 °F 13.8 °F 1026.3 in Calm   4.8 mph 83 % 0.0 in
12:17 16.7 °F 13.8 °F 1026.3 in South 1.6 mph 6.4 mph 83 % 0.0 in
12:22 16.8 °F 13.9 °F 1026.3 in WSW 3.2 mph 6.4 mph 83 % 0.0 in
12:27 17.1 °F 14.2 °F 1026.3 in SW 3.2 mph 6.4 mph 83 % 0.0 in
12:32 17.3 °F 14.2 °F 1026.3 in SSW 1.6 mph 6.4 mph 82 % 0.0 in
12:42 17.8 °F 14.5 °F 1026.3 in South 3.2 mph 6.4 mph 81 % 0.0 in
12:47 18.2 °F 14.5 °F 1026.3 in SSW 4.8 mph 6.4 mph 79 % 0.0 in
12:52 18.4 °F 14.5 °F 1026.0 in SSW 3.2 mph 6.4 mph 78 % 0.0 in
13:02 18.9 °F 14.8 °F 1026.0 in SW 3.2 mph 6.4 mph 77 % 0.0 in
13:12 19.3 °F 15.2 °F 1026.0 in SSW 1.6 mph 6.4 mph 77 % 0.0 in
13:17 19.6 °F 15.3 °F 1026.0 in SSE 3.2 mph 6.4 mph 76 % 0.0 in
13:22 19.7 °F 15.1 °F 1026.0 in SSW 8.0 mph 8.0 mph 75 % 0.0 in
13:32 19.7 °F 15.1 °F 1026.0 in SSW 4.8 mph 11.3 mph 75 % 0.0 in
13:42 19.8 °F 15.2 °F 1025.6 in Calm   11.3 mph 75 % 0.0 in
13:47 20.3 °F 15.1 °F 1025.6 in SSW 4.8 mph 9.7 mph 72 % 0.0 in
13:52 20.2 °F 15.2 °F 1025.6 in SSE 3.2 mph 9.7 mph 73 % 0.0 in
14:02 20.4 °F 15.0 °F 1025.3 in SW 3.2 mph 9.7 mph 71 % 0.0 in
14:07 20.6 °F 15.2 °F 1025.6 in SSW 3.2 mph 9.7 mph 71 % 0.0 in
14:12 20.6 °F 15.4 °F 1025.3 in SSW 6.4 mph 9.7 mph 72 % 0.0 in
14:22 20.8 °F 15.6 °F 1025.3 in SW 4.8 mph 11.3 mph 72 % 0.0 in
14:32 21.2 °F 15.9 °F 1025.3 in WSW 1.6 mph 11.3 mph 72 % 0.0 in
14:42 21.6 °F 15.7 °F 1025.3 in SW 8.0 mph 9.7 mph 69 % 0.0 in
14:47 21.6 °F 16.1 °F 1025.3 in SSW 3.2 mph 9.7 mph 71 % 0.0 in
14:52 21.8 °F 15.6 °F 1025.3 in SW 9.7 mph 9.7 mph 68 % 0.0 in
14:57 22.1 °F 15.7 °F 1024.9 in SW 4.8 mph 11.3 mph 67 % 0.0 in
15:02 22.1 °F 15.9 °F 1024.9 in SSW 4.8 mph 11.3 mph 68 % 0.0 in
15:07 22.4 °F 15.5 °F 1024.9 in SSW 6.4 mph 11.3 mph 65 % 0.0 in
15:12 22.3 °F 15.4 °F 1025.3 in West 4.8 mph 11.3 mph 65 % 0.0 in
15:17 22.4 °F 15.3 °F 1024.9 in SSW 4.8 mph 9.7 mph 64 % 0.0 in
15:22 22.6 °F 15.4 °F 1024.9 in SW 6.4 mph 9.7 mph 64 % 0.0 in
15:27 22.6 °F 15.2 °F 1024.9 in West 4.8 mph 8.0 mph 63 % 0.0 in
15:32 22.7 °F 15.0 °F 1024.9 in SSW 1.6 mph 8.0 mph 62 % 0.0 in
15:37 22.8 °F 15.1 °F 1024.9 in WSW 1.6 mph 8.0 mph 62 % 0.0 in
15:42 22.9 °F 15.2 °F 1024.9 in West 4.8 mph 8.0 mph 62 % 0.0 in
15:47 23.2 °F 15.3 °F 1024.9 in SW 4.8 mph 8.0 mph 61 % 0.0 in
15:52 23.1 °F 14.9 °F 1024.9 in WSW 3.2 mph 8.0 mph 60 % 0.0 in
16:02 23.2 °F 15.3 °F 1024.9 in WSW 4.8 mph 8.0 mph 61 % 0.0 in
16:07 23.4 °F 15.4 °F 1024.9 in WSW 3.2 mph 6.4 mph 61 % 0.0 in
16:12 23.6 °F 15.4 °F 1024.9 in SSE 3.2 mph 6.4 mph 60 % 0.0 in
16:17 23.8 °F 15.8 °F 1024.9 in West 1.6 mph 4.8 mph 61 % 0.0 in
16:22 23.8 °F 15.3 °F 1024.9 in SW 3.2 mph 4.8 mph 59 % 0.0 in
16:32 23.9 °F 14.9 °F 1024.9 in WSW 1.6 mph 4.8 mph 57 % 0.0 in
16:42 23.8 °F 14.8 °F 1024.9 in WSW 1.6 mph 4.8 mph 57 % 0.0 in
16:47 23.9 °F 14.9 °F 1024.9 in SSW 3.2 mph 6.4 mph 57 % 0.0 in
16:52 24.1 °F 14.8 °F 1024.9 in WSW 3.2 mph 6.4 mph 56 % 0.0 in
16:57 24.0 °F 15.0 °F 1024.9 in WSW 6.4 mph 6.4 mph 57 % 0.0 in
17:02 23.8 °F 15.0 °F 1024.9 in SW 1.6 mph 4.8 mph 58 % 0.0 in
17:12 23.7 °F 14.9 °F 1024.9 in SW 3.2 mph 9.7 mph 58 % 0.0 in
17:17 23.6 °F 15.1 °F 1024.9 in SSW 4.8 mph 9.7 mph 59 % 0.0 in
17:27 23.2 °F 15.3 °F 1024.9 in SSW 4.8 mph 11.3 mph 61 % 0.0 in
17:32 23.1 °F 15.2 °F 1024.9 in SW 4.8 mph 11.3 mph 61 % 0.0 in
17:37 23.1 °F 15.7 °F 1024.9 in SW 4.8 mph 11.3 mph 63 % 0.0 in
17:42 23.0 °F 15.1 °F 1024.9 in SSW 4.8 mph 11.3 mph 61 % 0.0 in
17:47 22.8 °F 15.1 °F 1024.9 in SW 3.2 mph 8.0 mph 62 % 0.0 in
17:52 22.8 °F 15.1 °F 1024.9 in SW 3.2 mph 8.0 mph 62 % 0.0 in
18:02 22.7 °F 15.3 °F 1024.9 in SSW 1.6 mph 8.0 mph 63 % 0.0 in
18:12 22.4 °F 15.0 °F 1024.9 in SSW 3.2 mph 6.4 mph 63 % 0.0 in
18:17 22.2 °F 15.1 °F 1024.9 in SW 3.2 mph 6.4 mph 64 % 0.0 in
18:22 22.0 °F 14.9 °F 1024.9 in WSW 1.6 mph 6.4 mph 64 % 0.0 in
18:27 21.7 °F 14.8 °F 1024.9 in Calm   6.4 mph 65 % 0.0 in
18:32 21.3 °F 14.9 °F 1024.9 in Calm   4.8 mph 67 % 0.0 in
18:37 20.9 °F 15.2 °F 1024.9 in Calm   4.8 mph 70 % 0.0 in
18:47 20.0 °F 15.0 °F 1024.9 in WNW 1.6 mph 3.2 mph 73 % 0.0 in
18:57 19.1 °F 15.0 °F 1024.9 in Calm   3.2 mph 77 % 0.0 in
19:02 18.9 °F 15.0 °F 1024.9 in WNW 1.6 mph 3.2 mph 78 % 0.0 in
19:12 18.2 °F 14.7 °F 1025.3 in Calm   1.6 mph 80 % 0.0 in
19:17 18.1 °F 14.8 °F 1025.3 in WNW 1.6 mph 1.6 mph 81 % 0.0 in
19:22 18.0 °F 14.5 °F 1025.3 in Calm   1.6 mph 80 % 0.0 in
19:27 17.8 °F 14.5 °F 1024.9 in WNW 1.6 mph 1.6 mph 81 % 0.0 in
19:32 17.6 °F 14.5 °F 1025.3 in WNW 1.6 mph 1.6 mph 82 % 0.0 in
19:37 17.4 °F 14.5 °F 1025.3 in Calm   1.6 mph 83 % 0.0 in
19:42 17.2 °F 14.5 °F 1025.3 in Calm   1.6 mph 84 % 0.0 in
19:52 16.8 °F 14.1 °F 1025.3 in Calm   1.6 mph 84 % 0.0 in
20:02 16.7 °F 14.2 °F 1025.6 in Calm   1.6 mph 85 % 0.0 in
20:12 16.3 °F 14.0 °F 1025.6 in Calm   1.6 mph 86 % 0.0 in
20:17 16.1 °F 13.9 °F 1025.6 in Calm   1.6 mph 87 % 0.0 in
20:22 15.9 °F 13.7 °F 1025.6 in Calm   1.6 mph 87 % 0.0 in
20:27 15.8 °F 13.8 °F 1025.6 in WNW 1.6 mph 1.6 mph 88 % 0.0 in
20:32 15.8 °F 13.8 °F 1025.6 in Calm   1.6 mph 88 % 0.0 in
20:37 15.8 °F 13.8 °F 1025.6 in Calm   1.6 mph 88 % 0.0 in
20:42 16.1 °F 13.9 °F 1025.6 in Calm   1.6 mph 87 % 0.0 in
20:47 15.8 °F 13.6 °F 1026.0 in WNW 1.6 mph 1.6 mph 87 % 0.0 in
20:52 15.7 °F 13.7 °F 1026.0 in WNW 1.6 mph 1.6 mph 88 % 0.0 in
20:57 15.7 °F 13.7 °F 1025.6 in North 1.6 mph 1.6 mph 88 % 0.0 in
21:02 15.6 °F 13.8 °F 1025.6 in Calm   1.6 mph 89 % 0.0 in
21:07 15.4 °F 13.6 °F 1025.6 in Calm   1.6 mph 89 % 0.0 in
21:12 15.3 °F 13.7 °F 1026.0 in Calm   1.6 mph 90 % 0.0 in
21:17 15.2 °F 13.4 °F 1026.0 in Calm   1.6 mph 89 % 0.0 in
21:22 15.1 °F 13.5 °F 1025.6 in Calm   1.6 mph 90 % 0.0 in
21:42 14.9 °F 13.3 °F 1025.6 in Calm     90 % 0.0 in
21:47 14.9 °F 13.3 °F 1025.6 in Calm   1.6 mph 90 % 0.0 in
21:52 14.9 °F 13.4 °F 1026.0 in Calm   1.6 mph 91 % 0.0 in
21:57 14.8 °F 13.2 °F 1026.0 in North 1.6 mph 1.6 mph 90 % 0.0 in
22:07 14.7 °F 13.2 °F 1026.0 in Calm   1.6 mph 91 % 0.0 in
22:17 14.7 °F 13.2 °F 1026.0 in Calm     91 % 0.0 in
22:22 14.7 °F 13.2 °F 1026.0 in Calm     91 % 0.0 in
22:32 14.7 °F 13.2 °F 1026.0 in North 1.6 mph   91 % 0.0 in
22:42 14.7 °F 13.1 °F 1026.3 in North 1.6 mph 4.8 mph 90 % 0.0 in
22:52 14.8 °F 13.3 °F 1026.3 in North 3.2 mph 4.8 mph 91 % 0.0 in
23:02 14.7 °F 12.9 °F 1026.3 in Calm   4.8 mph 89 % 0.0 in
23:12 14.2 °F 12.8 °F 1026.3 in Calm   4.8 mph 91 % 0.0 in
23:17 14.2 °F 12.9 °F 1026.3 in WNW 1.6 mph 1.6 mph 92 % 0.0 in
23:22 14.3 °F 12.9 °F 1026.3 in Calm   1.6 mph 91 % 0.0 in
23:27 14.2 °F 12.9 °F 1026.3 in Calm   1.6 mph 92 % 0.0 in
23:32 14.1 °F 12.7 °F 1026.3 in Calm   1.6 mph 91 % 0.0 in
23:42 14.1 °F 12.8 °F 1026.6 in Calm     92 % 0.0 in
23:47 14.2 °F 13.1 °F 1026.6 in Calm     93 % 0.0 in
23:52 14.4 °F 13.1 °F 1026.6 in North 3.2 mph   92 % 0.0 in
23:57 14.4 °F 12.9 °F 1026.6 in NNW 3.2 mph 6.4 mph 91 % 0.0 in
Meteo18
Compliments of Weather Underground - 4 mb

Script developed by  Jim McMurry - jmcmurry@mwt.net Adapted for the template by  Wim van der Kuil - Leuven-Template.eu

You find our weather info also at:

European Weather Network

Weather Underground

Equipment we use:

Weather-station
Davis Vue

Weather-program
Meteobridge

Weather-server
Raspberry PI 2 B+

Provider
1 and 1

Davis Vue

Meteobridge

Raspberry PI 2 B+

1 and 1